Time;durP1;ratioP1;P1;durP2;ratioP2;P2;SDS_P1;SDS_P2;PMS_P1;PMS_P2;Temp;Humidity;BMP_temperature;BMP_pressure;BME280_temperature;BME280_humidity;BME280_pressure;Samples;Min_cycle;Max_cycle;Signal;HPM_P1;HPM_P2
2023/04/05 18:20:50;;;;;;;7.27;3.80;;;;;;;11.65;26.53;100857.00;6191738;22;21051;-62
2023/04/05 18:23:21;;;;;;;6.77;4.47;;;;;;;11.61;27.35;100860.91;6265228;22;20173;-61
2023/04/05 18:25:49;;;;;;;11.47;5.27;;;;;;;11.58;27.91;100863.88;6263669;22;20268;-62
2023/04/05 18:28:17;;;;;;;10.63;5.67;;;;;;;11.56;28.16;100868.50;6275084;22;20182;-61
2023/04/05 18:30:50;;;;;;;11.07;5.73;;;;;;;11.52;28.31;100863.63;6289047;22;20175;-62
2023/04/05 18:33:18;;;;;;;15.17;7.00;;;;;;;11.46;28.54;100866.84;6293905;22;20187;-61
2023/04/05 18:35:50;;;;;;;13.00;6.37;;;;;;;11.42;28.81;100868.13;6289395;22;20187;-62
2023/04/05 18:38:18;;;;;;;14.20;5.97;;;;;;;11.39;28.84;100879.03;6292770;22;20183;-61
2023/04/05 18:40:46;;;;;;;12.73;6.23;;;;;;;11.32;28.93;100876.94;6290293;22;20267;-60
2023/04/05 18:43:14;;;;;;;13.70;5.97;;;;;;;11.29;29.91;100874.56;6292952;22;20261;-60
2023/04/05 18:45:42;;;;;;;10.30;5.33;;;;;;;11.25;31.01;100878.50;6291796;22;20206;-61
2023/04/05 18:48:11;;;;;;;8.97;4.77;;;;;;;11.19;31.10;100878.22;6294077;22;20182;-62
2023/04/05 18:50:39;;;;;;;9.30;5.00;;;;;;;11.11;30.92;100880.75;6294480;22;20206;-61
2023/04/05 18:53:08;;;;;;;9.93;5.83;;;;;;;11.06;30.29;100873.22;6295616;22;20178;-62
2023/04/05 18:55:36;;;;;;;11.60;6.30;;;;;;;11.06;29.97;100885.66;6295806;22;20187;-61
2023/04/05 18:58:04;;;;;;;14.37;6.90;;;;;;;11.07;29.75;100879.38;6296367;22;20754;-61
2023/04/05 19:00:33;;;;;;;10.23;6.10;;;;;;;11.03;30.00;100884.09;6295870;22;20186;-61
2023/04/05 19:03:01;;;;;;;19.40;7.33;;;;;;;11.02;30.35;100886.91;6298755;22;20643;-61
2023/04/05 19:05:30;;;;;;;13.60;7.47;;;;;;;11.01;30.82;100890.53;6294459;22;20860;-62
2023/04/05 19:07:57;;;;;;;11.80;5.83;;;;;;;10.96;30.85;100892.78;6295330;22;20183;-60
2023/04/05 19:10:27;;;;;;;13.40;5.80;;;;;;;10.90;31.35;100887.06;6296567;22;20186;-60
2023/04/05 19:12:55;;;;;;;10.17;5.40;;;;;;;10.89;31.50;100893.34;6296536;22;20185;-60
2023/04/05 19:15:22;;;;;;;10.20;5.80;;;;;;;10.84;31.66;100884.94;6295714;22;20636;-61
2023/04/05 19:17:50;;;;;;;12.57;5.80;;;;;;;10.81;32.03;100895.00;6296161;22;20278;-61
2023/04/05 19:20:19;;;;;;;13.53;6.37;;;;;;;10.79;32.99;100891.66;6295763;22;20183;-60
2023/04/05 19:22:48;;;;;;;14.70;6.87;;;;;;;10.67;33.33;100890.94;6328394;22;20500;-60
2023/04/05 19:25:16;;;;;;;11.80;6.20;;;;;;;10.58;33.17;100894.44;6325981;22;20252;-59
2023/04/05 19:27:45;;;;;;;17.47;6.40;;;;;;;10.49;33.61;100895.25;6328298;22;20185;-61
2023/04/05 19:30:13;;;;;;;12.10;6.67;;;;;;;10.42;34.19;100894.13;6328930;22;20181;-60
2023/04/05 19:32:41;;;;;;;11.17;6.97;;;;;;;10.38;34.15;100890.09;6328049;22;20182;-61
2023/04/05 19:35:10;;;;;;;11.67;7.03;;;;;;;10.37;34.21;100896.34;6325318;22;20535;-61
2023/04/05 19:37:38;;;;;;;10.47;6.37;;;;;;;10.36;34.12;100894.69;6328662;22;20558;-62
2023/04/05 19:40:07;;;;;;;15.53;6.33;;;;;;;10.34;34.56;100884.22;6328707;22;20200;-61
2023/04/05 19:42:35;;;;;;;16.23;7.20;;;;;;;10.35;34.52;100887.69;6328177;22;20264;-61
2023/04/05 19:45:08;;;;;;;14.07;8.50;;;;;;;10.34;33.98;100894.81;6327245;22;20254;-61
2023/04/05 19:47:42;;;;;;;17.33;8.83;;;;;;;10.31;33.37;100892.41;6320602;22;20262;-62
2023/04/05 19:50:45;;;;;;;23.90;10.40;;;;;;;10.29;34.03;100893.56;6326920;22;20169;-65
2023/04/05 19:53:35;;;;;;;22.70;10.07;;;;;;;10.23;34.58;100891.44;6326357;22;20244;-65
2023/04/05 19:56:08;;;;;;;22.40;9.20;;;;;;;10.26;34.66;100891.16;6325683;22;20248;-66
2023/04/05 19:58:36;;;;;;;16.30;8.53;;;;;;;10.24;34.81;100893.94;6326275;22;20220;-64
2023/04/05 20:01:06;;;;;;;18.33;9.00;;;;;;;10.27;35.57;100891.03;6326669;22;20192;-65
2023/04/05 20:03:35;;;;;;;14.67;8.37;;;;;;;10.27;35.42;100895.50;6325481;22;20242;-65
2023/04/05 20:06:08;;;;;;;16.17;7.77;;;;;;;10.25;36.23;100886.84;6325688;22;20224;-66
2023/04/05 20:08:38;;;;;;;15.90;9.17;;;;;;;10.16;35.58;100886.66;6327592;22;20485;-66
2023/04/05 20:11:08;;;;;;;14.40;8.27;;;;;;;10.13;35.68;100894.00;6326287;22;20795;-66
2023/04/05 20:13:44;;;;;;;16.73;8.13;;;;;;;10.04;35.83;100900.94;6325271;22;20181;-70
2023/04/05 20:16:15;;;;;;;15.87;8.60;;;;;;;9.97;36.18;100894.53;6324619;22;20185;-65
2023/04/05 20:18:47;;;;;;;16.57;10.87;;;;;;;9.91;36.51;100889.78;6327303;22;20851;-66
2023/04/05 20:21:16;;;;;;;29.80;11.57;;;;;;;9.87;36.95;100898.94;6327306;22;20268;-65
2023/04/05 20:23:44;;;;;;;15.27;8.90;;;;;;;9.82;36.67;100901.16;6324709;22;20737;-67
2023/04/05 20:26:13;;;;;;;13.73;7.90;;;;;;;9.72;37.45;100901.13;6321521;22;20212;-66
2023/04/05 20:28:42;;;;;;;11.97;7.47;;;;;;;9.70;37.69;100902.22;6324053;22;20180;-67
2023/04/05 20:31:15;;;;;;;11.87;7.70;;;;;;;9.66;37.59;100906.09;6324486;22;20786;-65
2023/04/05 20:33:49;;;;;;;15.23;7.97;;;;;;;9.58;37.49;100901.47;6324581;22;20239;-65
2023/04/05 20:36:19;;;;;;;18.03;7.57;;;;;;;9.57;37.18;100901.59;6325437;22;20162;-66
2023/04/05 20:38:48;;;;;;;11.23;7.90;;;;;;;9.50;37.54;100900.44;6324187;22;20258;-69
2023/04/05 20:41:17;;;;;;;12.70;7.27;;;;;;;9.48;37.29;100899.72;6327236;22;20185;-66
2023/04/05 20:43:46;;;;;;;17.33;7.83;;;;;;;9.45;37.35;100900.81;6325928;22;20182;-67
2023/04/05 20:46:15;;;;;;;17.70;7.97;;;;;;;9.44;37.39;100894.69;6324393;22;20805;-66
2023/04/05 20:48:43;;;;;;;26.43;10.20;;;;;;;9.38;37.69;100892.56;6327350;22;20548;-65
2023/04/05 20:51:13;;;;;;;17.00;10.30;;;;;;;9.34;37.97;100896.44;6327459;22;20184;-64
2023/04/05 20:53:41;;;;;;;15.20;9.10;;;;;;;9.29;38.11;100893.34;6327090;22;20203;-66
2023/04/05 20:56:10;;;;;;;16.83;8.30;;;;;;;9.30;38.25;100888.91;6324210;22;20238;-66
2023/04/05 20:58:40;;;;;;;15.97;7.80;;;;;;;9.27;38.54;100890.00;6326563;22;20232;-65
2023/04/05 21:01:09;;;;;;;14.97;7.70;;;;;;;9.29;38.70;100898.66;6325041;22;20191;-66
2023/04/05 21:03:38;;;;;;;12.77;8.13;;;;;;;9.30;38.92;100888.91;6326795;22;20241;-66
2023/04/05 21:06:09;;;;;;;21.20;10.00;;;;;;;9.22;39.03;100884.25;6326599;22;20199;-66
2023/04/05 21:08:39;;;;;;;14.77;7.90;;;;;;;9.21;39.14;100885.22;6326664;22;20218;-66
2023/04/05 21:11:09;;;;;;;16.97;8.37;;;;;;;9.21;39.43;100893.16;6323962;22;20500;-65
2023/04/05 21:13:37;;;;;;;22.33;8.30;;;;;;;9.20;39.48;100886.19;6322846;22;20612;-67
2023/04/05 21:16:06;;;;;;;20.40;8.10;;;;;;;9.10;39.64;100887.09;6325069;22;20179;-64
2023/04/05 21:18:34;;;;;;;13.67;7.73;;;;;;;8.99;39.82;100887.97;6324467;22;20193;-66
2023/04/05 21:21:03;;;;;;;11.53;7.10;;;;;;;8.91;40.18;100887.78;6323029;22;20230;-65
2023/04/05 21:23:32;;;;;;;18.70;8.53;;;;;;;8.77;40.30;100886.28;6323630;22;20242;-65
2023/04/05 21:26:03;;;;;;;15.90;8.00;;;;;;;8.63;40.53;100887.41;6323273;22;20269;-66
2023/04/05 21:28:31;;;;;;;15.60;8.30;;;;;;;8.58;40.68;100896.69;6324373;22;20184;-67
2023/04/05 21:30:59;;;;;;;17.50;8.00;;;;;;;8.54;41.18;100889.94;6324818;22;20191;-64
2023/04/05 21:33:27;;;;;;;18.90;8.03;;;;;;;8.59;40.81;100893.91;6324046;22;20184;-65
2023/04/05 21:35:55;;;;;;;19.60;8.07;;;;;;;8.63;41.13;100895.31;6321161;22;20175;-66
2023/04/05 21:38:23;;;;;;;16.37;8.20;;;;;;;8.67;41.40;100896.78;6325223;22;20183;-66
2023/04/05 21:40:51;;;;;;;15.90;8.63;;;;;;;8.71;41.41;100897.34;6325629;22;21041;-66
2023/04/05 21:43:20;;;;;;;15.97;7.90;;;;;;;8.72;41.96;100899.03;6324811;22;20505;-64
2023/04/05 21:45:48;;;;;;;15.90;7.80;;;;;;;8.70;42.15;100894.84;6325093;22;20688;-65
2023/04/05 21:48:16;;;;;;;20.07;9.17;;;;;;;8.66;41.85;100892.44;6325333;22;20182;-66
2023/04/05 21:50:44;;;;;;;15.90;7.60;;;;;;;8.63;41.96;100897.13;6324561;22;20175;-65
2023/04/05 21:53:13;;;;;;;17.93;8.70;;;;;;;8.57;42.59;100895.84;6326023;22;20213;-64
2023/04/05 21:55:41;;;;;;;13.90;8.50;;;;;;;8.55;42.05;100894.28;6323601;22;20664;-65
2023/04/05 21:58:08;;;;;;;13.30;8.60;;;;;;;8.49;42.52;100887.69;6325073;22;20186;-65
2023/04/05 22:00:38;;;;;;;18.20;8.33;;;;;;;8.45;42.72;100895.97;6325119;22;20192;-65
2023/04/05 22:03:06;;;;;;;16.90;8.17;;;;;;;8.41;42.79;100889.28;6327107;22;20180;-64
2023/04/05 22:05:34;;;;;;;17.13;9.57;;;;;;;8.37;42.66;100891.31;6326766;22;20191;-65
2023/04/05 22:08:06;;;;;;;16.07;9.83;;;;;;;8.37;42.79;100893.97;6325402;22;20191;-65
2023/04/05 22:10:35;;;;;;;13.70;8.57;;;;;;;8.35;42.59;100895.91;6326150;22;20644;-66
2023/04/05 22:13:03;;;;;;;15.33;10.03;;;;;;;8.30;42.74;100887.47;6325852;22;20493;-66
2023/04/05 22:15:31;;;;;;;15.37;9.27;;;;;;;8.28;42.91;100889.38;6325113;22;20188;-65
2023/04/05 22:18:02;;;;;;;13.87;8.90;;;;;;;8.28;42.72;100884.09;6326087;22;20258;-65
2023/04/05 22:20:31;;;;;;;14.93;8.63;;;;;;;8.25;42.92;100889.66;6325086;22;20174;-66
2023/04/05 22:22:59;;;;;;;16.80;9.03;;;;;;;8.24;43.11;100891.44;6325018;22;20167;-65
2023/04/05 22:25:27;;;;;;;16.60;8.73;;;;;;;8.22;43.20;100889.88;6324943;22;20786;-66
2023/04/05 22:27:58;;;;;;;16.27;9.30;;;;;;;8.17;43.63;100897.34;6325494;22;20579;-65
2023/04/05 22:30:27;;;;;;;14.23;8.33;;;;;;;8.10;43.54;100896.13;6325550;22;20633;-64
2023/04/05 22:33:12;;;;;;;16.63;9.10;;;;;;;7.99;43.91;100883.81;6323596;22;20616;-66
2023/04/05 22:35:41;;;;;;;16.47;9.70;;;;;;;7.95;44.33;100885.00;6324183;22;20858;-66
2023/04/05 22:38:09;;;;;;;16.17;8.47;;;;;;;7.96;44.17;100894.59;6325130;22;20890;-64
2023/04/05 22:40:37;;;;;;;14.53;8.50;;;;;;;7.93;44.58;100887.75;6325072;22;20653;-65
2023/04/05 22:43:05;;;;;;;18.23;9.80;;;;;;;7.87;44.39;100884.75;6322114;22;20181;-65
2023/04/05 22:45:33;;;;;;;16.83;9.17;;;;;;;7.87;44.61;100885.59;6323343;22;20191;-66
2023/04/05 22:48:01;;;;;;;15.90;9.23;;;;;;;7.81;45.01;100874.69;6325065;22;20202;-65
2023/04/05 22:50:30;;;;;;;16.20;8.77;;;;;;;7.72;45.13;100878.88;6323061;22;20561;-66
2023/04/05 22:52:59;;;;;;;14.17;8.70;;;;;;;7.72;45.09;100878.03;6321089;22;20188;-65
2023/04/05 22:55:26;;;;;;;16.57;9.50;;;;;;;7.71;45.02;100881.66;6324097;22;20181;-67
2023/04/05 22:57:54;;;;;;;14.50;8.33;;;;;;;7.65;45.24;100869.75;6324184;22;20181;-67
2023/04/05 23:00:22;;;;;;;15.50;9.83;;;;;;;7.67;45.03;100875.75;6323723;22;20218;-66
2023/04/05 23:02:50;;;;;;;14.13;8.50;;;;;;;7.62;45.13;100874.44;6324075;22;20197;-66
2023/04/05 23:05:18;;;;;;;14.07;8.10;;;;;;;7.59;45.14;100872.03;6323372;22;20213;-66
2023/04/05 23:07:48;;;;;;;16.17;8.20;;;;;;;7.60;45.16;100871.91;6324163;22;20258;-66
2023/04/05 23:10:16;;;;;;;19.07;8.23;;;;;;;7.57;45.04;100877.41;6323803;22;20634;-65
2023/04/05 23:12:44;;;;;;;14.73;7.73;;;;;;;7.60;44.90;100876.34;6326553;22;20235;-69
2023/04/05 23:15:13;;;;;;;15.67;8.57;;;;;;;7.59;45.08;100880.78;6324812;22;20254;-66
2023/04/05 23:17:41;;;;;;;15.53;8.60;;;;;;;7.55;44.93;100879.38;6325357;22;20182;-67
2023/04/05 23:20:10;;;;;;;17.23;8.27;;;;;;;7.63;44.66;100876.97;6326081;22;20186;-64
2023/04/05 23:22:38;;;;;;;18.53;8.50;;;;;;;7.64;44.85;100878.66;6325768;22;21043;-65
2023/04/05 23:25:09;;;;;;;15.63;7.50;;;;;;;7.65;44.62;100874.22;6324659;22;20301;-64
2023/04/05 23:27:36;;;;;;;15.77;8.00;;;;;;;7.69;44.83;100865.91;6325625;22;20802;-66
2023/04/05 23:30:06;;;;;;;15.33;8.10;;;;;;;7.74;44.58;100871.66;6325032;22;20181;-66
2023/04/05 23:32:34;;;;;;;16.27;8.67;;;;;;;7.73;44.60;100866.53;6323972;22;20292;-65
2023/04/05 23:35:01;;;;;;;14.10;8.73;;;;;;;7.70;44.58;100870.25;6324849;22;20817;-66
2023/04/05 23:37:29;;;;;;;16.03;8.20;;;;;;;7.68;44.76;100873.94;6325134;22;20185;-65
2023/04/05 23:39:57;;;;;;;12.87;7.70;;;;;;;7.71;44.92;100874.56;6326487;22;20178;-64
2023/04/05 23:42:26;;;;;;;16.23;8.73;;;;;;;7.65;44.59;100863.66;6325439;22;20186;-65
2023/04/05 23:44:54;;;;;;;14.70;8.40;;;;;;;7.69;44.34;100870.34;6324912;22;20196;-65
2023/04/05 23:47:22;;;;;;;14.30;8.40;;;;;;;7.67;44.66;100873.09;6323301;22;20224;-66
2023/04/05 23:49:50;;;;;;;13.60;8.47;;;;;;;7.63;44.49;100871.69;6326519;22;20197;-65
2023/04/05 23:52:18;;;;;;;14.50;8.07;;;;;;;7.57;44.45;100880.06;6326125;22;20209;-65
2023/04/05 23:54:46;;;;;;;13.83;7.80;;;;;;;7.59;44.62;100870.22;6323472;22;20926;-65
2023/04/05 23:57:14;;;;;;;15.73;9.87;;;;;;;7.55;44.77;100869.66;6323417;22;20181;-65
2023/04/05 23:59:43;;;;;;;16.50;8.83;;;;;;;7.52;44.89;100869.88;6325266;22;20189;-64
